WEATHER DATA

YESTERDAY
Time Temp. Dewp. Hum. Wind dir Wind speed Wind gust Bar.
00:05 10.3 5.3 71 0 0.8 1.4 1021.6
00:16 10.2 5.4 72 303 0.8 1.4 1021.5
00:26 10.1 5.3 72 239 0.8 1.4 1021.5
00:35 10.1 5.5 73 285 0.8 1.1 1021.5
00:46 10 5.4 73 305 0.8 1.4 1021.5
00:56 9.9 5.5 74 315 0.3 1.1 1021.5
01:06 9.8 5.8 76 250 0.8 1.4 1021.5
01:16 9.8 5.8 76 285 0.8 1.4 1021.5
01:26 9.8 6 77 315 0.3 1.1 1021.5
01:36 9.7 5.9 77 270 0.3 1.1 1021.5
01:46 9.7 6.1 78 270 0.3 1.1 1021.6
01:57 9.7 6.4 80 305 0.3 0.8 1021.5
02:07 9.7 6.4 80 270 0.3 1.1 1021.5
02:17 9.7 6.6 81 243 0.8 1.4 1021.5
02:26 9.7 6.6 81 28 0.8 1.4 1021.4
02:37 9.6 6.5 81 15 0.8 1.4 1021.3
02:47 9.5 6.6 82 32 0.3 1.1 1021.3
02:57 9.5 6.9 84 323 0.3 1.1 1021.2
03:07 9.5 6.9 84 251 0.8 1.4 1021.1
03:17 9.4 7 85 333 0.8 1.1 1021.1
03:27 9.4 7.2 86 270 0.3 1.1 1021.2
03:37 9.3 7.3 87 257 0.8 1.4 1021.1
03:48 9.2 7.2 87 255 0.8 1.4 1021.1
03:58 9.2 7.3 88 246 0.8 1.9 1020.9
04:08 9.2 7.5 89 243 1.1 1.9 1020.8
04:18 9.2 7.5 89 240 0.8 1.4 1020.7
04:28 9.2 7.6 90 270 0.3 1.1 1020.7
04:38 9.2 7.5 89 246 0.8 1.4 1020.6
04:48 9.1 7.4 89 250 0.8 1.4 1020.5
04:59 9.1 7.2 88 4 0.3 1.4 1020.6
05:08 9 7 87 255 0.8 1.9 1020.6
05:18 9 6.8 86 356 0.8 1.4 1020.6
05:28 8.9 6.7 86 341 0.8 1.4 1020.5
05:39 8.9 6.5 85 38 0.8 2.2 1020.5
05:49 8.9 6.5 85 28 0.8 1.4 1020.5
05:59 8.9 6.3 84 14 0.8 1.4 1020.6
06:09 8.9 6.2 83 14 0.3 1.1 1020.7
06:19 8.9 6 82 11 0.3 1.4 1020.7
06:29 9 5.7 80 18 0.3 1.1 1020.6
06:39 9 5.6 79 38 0.8 1.9 1020.6
06:50 9.1 5.1 76 23 0.3 1.1 1020.6
07:00 9.1 5.1 76 270 0.3 1.1 1020.7
07:09 9.1 5.3 77 270 0.3 1.1 1020.8
07:20 9.2 6.3 82 225 0.3 1.4 1020.8
07:30 9.4 7 85 209 0.8 1.9 1020.7
07:40 9.7 7.3 85 218 1.1 1.9 1020.7
07:50 10.1 7.9 86 199 1.1 1.9 1020.8
08:01 10.4 8 85 198 1.1 3.1 1020.9
08:10 10.7 8.5 86 215 1.1 1.9 1021.1
08:20 11 8.6 85 221 1.1 2.2 1021.2
08:30 11.3 8.9 85 223 1.1 2.2 1021.2
08:41 11.5 8.9 84 208 1.9 3.3 1021.3
08:51 11.8 9.2 84 222 3.3 7.2 1021.3
09:01 12.1 9.5 84 258 4.4 8.9 1021.4
09:11 12.3 9.7 84 228 5.3 13.1 1021.4
09:19 12.6 9.8 83 226 5 11.9 1021.4
09:29 12.9 9.9 82 212 2.2 4.2 1021.5
09:40 13.2 10.4 83 215 2.2 4.4 1021.5
09:50 13.8 10.6 81 201 2.2 4.4 1021.6
10:00 14.4 11 80 217 3.3 5.6 1021.6
10:10 14.5 10.9 79 195 1.1 3.1 1021.8
10:20 14.7 11.5 81 207 1.1 3.1 1021.6
10:30 15.1 11.3 78 204 1.4 2.5 1021.6
10:40 15.4 11.2 76 197 1.4 3.1 1021.6
10:51 15.2 10.6 74 219 1.4 3.1 1021.8
11:00 15.3 10.9 75 214 1.1 1.9 1021.9
11:10 15.4 11 75 232 1.1 3.3 1021.9
11:20 15.4 10.8 74 213 1.9 3.3 1022
11:35 15.5 10.9 74 216 3.3 8.6 1021.8
11:45 16 11.2 73 211 2.5 9.7 1021.9
11:55 16.2 11.4 73 212 1.1 3.1 1021.8
12:04 17 12.1 73 212 3.3 8.6 1021.6
12:14 17.1 10.7 66 213 1.9 4.2 1021.5
12:25 17.3 10.9 66 223 1.1 3.3 1021.5
12:35 17.7 10.6 63 215 1.9 4.4 1021.5
12:45 18.1 11.2 64 200 1.9 3.6 1021.6
12:54 18.3 10.9 62 210 1.4 3.3 1021.5
13:15 18.6 10.7 60 212 1.9 5 1021.5
13:25 19.2 10.5 57 178 1.9 5 1021.5
13:35 19.3 10.6 57 218 1.4 4.2 1021.5
13:46 19.5 10.2 55 205 1.1 3.1 1021.3
13:55 19.9 10 53 220 1.4 4.4 1021.3
14:05 19.8 10 53 211 1.9 5.3 1021.3
14:16 19.6 10.3 55 191 1.4 3.1 1021.2
14:35 20 10.1 53 217 3.6 11.1 1021.1
14:45 20.3 10.1 52 204 1.9 5.3 1021.1
14:55 20.6 10.4 52 220 1.9 4.4 1021.1
15:05 21 9.9 49 225 2.2 4.4 1020.9
15:15 21.4 10.9 51 203 1.4 5 1020.8
15:26 21.3 9.9 48 198 1.9 3.3 1020.8
15:35 21.7 10.5 49 177 1.4 4.2 1020.7
15:45 21.9 9.4 45 166 1.4 4.2 1020.6
15:56 22 9.9 46 191 1.4 4.2 1020.6
16:06 22 9.5 45 194 1.1 3.3 1020.5
16:16 22.3 9.5 44 185 1.4 3.3 1020.4
16:26 22.6 9.7 44 194 1.1 3.3 1020.4
16:36 22.7 10.2 45 185 1.4 5 1020.2
16:46 23.2 9.6 42 206 2.2 5 1020.1
16:56 23.5 10.6 44 194 1.1 3.1 1020.1
17:07 23.4 9.4 41 194 1.1 2.2 1020.1
17:16 22.4 9.6 44 205 0.8 3.1 1020
17:26 21.9 9.1 44 208 1.1 3.3 1020
17:36 21.8 9 44 221 1.4 3.6 1019.8
17:47 21.2 9.1 46 216 1.4 3.1 1019.6
17:57 21 9.3 47 212 1.1 3.3 1019.5
18:07 21.1 9.7 48 205 1.4 3.1 1019.5
18:17 20.7 9.3 48 211 1.1 2.5 1019.4
18:27 20.5 9.1 48 210 1.1 2.2 1019.4
18:37 20 9 49 237 0.8 1.9 1019.3
18:47 19.5 8.8 50 227 0.8 2.2 1019.3
18:58 19.1 8.7 51 242 0.8 1.4 1019.3
19:07 18.5 8.5 52 234 1.1 2.2 1019.2
19:17 18.1 8.7 54 222 0.8 1.9 1019.2
19:28 18.1 8.7 54 226 1.1 4.4 1019.2
19:38 18.4 8.9 54 227 2.5 4.4 1019.2
19:48 18.3 8.6 53 218 1.1 2.5 1019.3
19:57 18 8.8 55 243 0.8 1.4 1019.3
20:08 17.7 8.6 55 242 1.1 1.9 1019.2
20:18 17.2 8.4 56 221 1.1 2.5 1019.2
20:28 16.8 8.2 57 248 0.8 1.4 1019.3
20:38 16.3 7.8 57 246 0.8 1.4 1019.3
20:49 15.8 7.8 59 250 0.8 1.9 1019.4
20:58 15.3 7.3 59 257 0.8 1.4 1019.4
21:08 14.9 7.2 60 260 0.8 1.4 1019.6
21:19 14.5 7.3 62 270 0.8 1.1 1019.8
21:29 14.2 7.3 63 252 0.8 1.1 1019.8
21:39 13.9 7.2 64 270 0.3 1.1 1019.8
21:49 13.7 7.2 65 270 0.3 1.1 1019.8
21:59 13.4 7 65 5 0.3 1.1 1019.8
22:09 13.2 7 66 344 0.3 1.4 1019.8
22:19 13 7 67 345 0.8 1.1 1019.8
22:30 12.8 7 68 8 0.8 1.4 1019.8
22:40 12.7 7.2 69 11 0.3 1.4 1019.8
22:49 12.6 7.3 70 241 0.8 1.4 1019.6
22:59 12.5 7.2 70 235 0.8 1.4 1019.6
23:10 12.4 7.1 70 243 0.8 1.4 1019.6
23:20 12.3 7 70 270 0.3 1.1 1019.5
23:30 12.2 7.1 71 14 0.8 1.4 1019.4
23:40 12 6.7 70 19 0.8 1.4 1019.5
23:50 12 6.9 71 28 0.8 1.4 1019.4

DAY STATISTIC

2018-05-23
TEMPERATURE
AVERAGE
14.4
HIGH
23.5
16:56
LOW
8.9
05:28
PRESSURE
AVERAGE
1020.7
HIGH
1022.0
11:20
LOW
1019.2
19:07
DEWPOINT
AVERAGE
8.3
HIGH
12.1
12:04
LOW
5.1
06:50
HUMIDITY
AVERAGE
69
HIGH
90
04:28
LOW
41
17:07
WIND SPEED
AVERAGE
1.2
HIGH
5.3
09:11
WIND GUST
AVERAGE
2.8
HIGH
13.1
09:11
WIND DIRECTION
PREVAILING
SW
45.7%
N
11.4
NE
5.0
E
0.0
SE
0.0
S
15.0
SW
45.7
W
17.9
NW
5.0
TEMPERATURE (°C)
LOW
8.9
HIGH
23.5
AVERAGE
14.4
PRESSURE (hpa)
LOW
1019.2
HIGH
1022.0
AVERAGE
1020.7
DEVICE